createdAt,value
2018-11-11T00:00:23.354Z,22.90
2018-11-11T00:02:53.413Z,22.80
2018-11-11T00:05:23.023Z,22.80
2018-11-11T00:07:51.752Z,22.80
2018-11-11T00:10:20.432Z,22.80
2018-11-11T00:12:49.131Z,22.80
2018-11-11T00:15:18.385Z,22.90
2018-11-11T00:17:48.142Z,22.90
2018-11-11T00:20:17.036Z,22.90
2018-11-11T00:22:46.622Z,23.00
2018-11-11T00:25:15.354Z,23.10
2018-11-11T00:27:43.983Z,23.00
2018-11-11T00:30:15.465Z,23.00
2018-11-11T00:32:44.141Z,23.10
2018-11-11T00:35:12.852Z,23.10
2018-11-11T00:37:41.809Z,23.10
2018-11-11T00:40:11.560Z,23.10
2018-11-11T00:42:40.283Z,23.00
2018-11-11T00:45:09.692Z,22.90
2018-11-11T00:47:38.399Z,22.90
2018-11-11T00:50:08.119Z,22.80
2018-11-11T00:52:36.838Z,22.80
2018-11-11T00:55:07.251Z,22.90
2018-11-11T00:57:35.912Z,22.70
2018-11-11T01:00:05.894Z,22.50
2018-11-11T01:02:34.580Z,22.50
2018-11-11T01:05:03.304Z,22.20
2018-11-11T01:07:31.989Z,22.10
2018-11-11T01:10:01.088Z,21.60
2018-11-11T01:12:29.763Z,21.40
2018-11-11T01:14:58.522Z,21.40
2018-11-11T01:17:27.169Z,21.10
2018-11-11T01:19:55.839Z,21.00
2018-11-11T01:22:24.532Z,21.00
2018-11-11T01:24:53.188Z,20.70
2018-11-11T01:27:21.850Z,20.60
2018-11-11T01:29:50.543Z,20.60
2018-11-11T01:32:19.235Z,20.50
2018-11-11T01:34:47.898Z,20.50
2018-11-11T01:37:16.524Z,20.40
2018-11-11T01:39:45.192Z,20.30
2018-11-11T01:44:42.320Z,20.20
2018-11-11T01:47:11.055Z,20.20
2018-11-11T01:49:39.731Z,20.10
2018-11-11T01:52:08.348Z,20.10
2018-11-11T01:54:37.006Z,20.10
2018-11-11T01:57:05.821Z,20.10
2018-11-11T01:59:34.540Z,20.00
2018-11-11T02:02:08.062Z,20.00
2018-11-11T02:07:05.452Z,20.00
2018-11-11T02:09:34.111Z,20.10
2018-11-11T02:12:02.820Z,20.00
2018-11-11T02:14:46.511Z,20.00
2018-11-11T02:17:15.164Z,20.00
2018-11-11T02:19:43.928Z,20.00
2018-11-11T02:22:12.628Z,20.00
2018-11-11T02:24:41.295Z,20.00
2018-11-11T02:27:10.094Z,20.00
2018-11-11T02:29:39.383Z,20.00
2018-11-11T02:32:08.055Z,20.00
2018-11-11T02:34:36.727Z,19.90
2018-11-11T02:37:05.440Z,19.90
2018-11-11T02:39:34.234Z,19.90
2018-11-11T02:42:02.895Z,19.90
2018-11-11T02:44:31.575Z,19.90
2018-11-11T02:47:00.269Z,19.90
2018-11-11T02:49:28.947Z,19.90
2018-11-11T02:51:57.845Z,19.90
2018-11-11T02:54:26.552Z,19.90
2018-11-11T02:56:55.221Z,19.90
2018-11-11T02:59:24.017Z,19.90
2018-11-11T03:01:52.673Z,19.90
2018-11-11T03:04:21.404Z,19.90
2018-11-11T03:09:18.414Z,19.80
2018-11-11T03:11:47.081Z,19.80
2018-11-11T03:14:15.739Z,19.80
2018-11-11T03:16:44.416Z,19.80
2018-11-11T03:19:13.119Z,19.80
2018-11-11T03:21:41.857Z,19.80
2018-11-11T03:24:10.526Z,19.80
2018-11-11T03:26:39.197Z,19.80
2018-11-11T03:29:07.837Z,19.80
2018-11-11T03:31:36.542Z,19.90
2018-11-11T03:34:05.705Z,19.90
2018-11-11T03:36:34.359Z,19.90
2018-11-11T03:39:03.068Z,19.90
2018-11-11T03:41:31.840Z,19.90
2018-11-11T03:44:00.477Z,19.90
2018-11-11T03:46:29.141Z,19.90
2018-11-11T03:48:57.804Z,19.90
2018-11-11T03:51:26.426Z,19.90
2018-11-11T03:53:55.123Z,20.00
2018-11-11T03:56:23.802Z,20.00
2018-11-11T03:58:52.591Z,20.00
2018-11-11T04:01:21.221Z,20.00
2018-11-11T04:03:49.868Z,20.00
2018-11-11T04:06:18.520Z,20.00
2018-11-11T04:08:47.204Z,20.00
2018-11-11T04:11:15.904Z,20.00
2018-11-11T04:13:44.577Z,20.00
2018-11-11T04:16:13.265Z,20.00
2018-11-11T04:18:41.926Z,19.90
2018-11-11T04:21:10.615Z,19.90
2018-11-11T04:23:39.299Z,19.90
2018-11-11T04:26:08.028Z,19.90
2018-11-11T04:28:36.677Z,19.90
2018-11-11T04:31:05.999Z,19.90
2018-11-11T04:33:34.686Z,19.90
2018-11-11T04:36:03.355Z,19.90
2018-11-11T04:38:32.021Z,19.80
2018-11-11T04:41:00.744Z,19.80
2018-11-11T04:43:29.482Z,19.80
2018-11-11T04:45:58.172Z,19.80
2018-11-11T04:48:26.887Z,19.80
2018-11-11T04:50:55.524Z,19.80
2018-11-11T04:53:24.189Z,19.80
2018-11-11T04:55:52.872Z,19.80
2018-11-11T04:58:21.595Z,19.80
2018-11-11T05:00:50.201Z,19.80
2018-11-11T05:03:18.856Z,19.80
2018-11-11T05:05:47.523Z,19.90
2018-11-11T05:08:16.180Z,19.90
2018-11-11T05:10:44.861Z,19.90
2018-11-11T05:13:13.541Z,19.90
2018-11-11T05:15:42.245Z,19.90
2018-11-11T05:18:10.894Z,19.90
2018-11-11T05:20:39.532Z,19.90
2018-11-11T05:23:08.187Z,19.90
2018-11-11T05:25:36.895Z,19.90
2018-11-11T05:28:05.563Z,19.90
2018-11-11T05:30:34.228Z,19.90
2018-11-11T05:33:02.888Z,19.90
2018-11-11T05:37:59.908Z,19.90
2018-11-11T05:40:28.610Z,19.90
2018-11-11T05:42:57.241Z,19.90
2018-11-11T05:45:25.922Z,19.90
2018-11-11T05:47:54.572Z,19.90
2018-11-11T05:50:23.342Z,19.90
2018-11-11T05:52:51.986Z,19.90
2018-11-11T05:55:20.640Z,19.90
2018-11-11T05:57:49.299Z,19.90
2018-11-11T06:00:18.813Z,19.90
2018-11-11T06:02:47.850Z,19.90
2018-11-11T06:05:17.063Z,19.80
2018-11-11T06:07:46.281Z,19.80
2018-11-11T06:10:16.201Z,19.80
2018-11-11T06:12:45.215Z,19.80
2018-11-11T06:15:15.204Z,19.80
2018-11-11T06:17:43.892Z,19.80
2018-11-11T06:20:14.154Z,19.80
2018-11-11T06:22:42.825Z,19.80
2018-11-11T06:25:11.724Z,19.80
2018-11-11T06:27:40.406Z,19.90
2018-11-11T06:30:09.972Z,19.90
2018-11-11T06:32:38.606Z,19.90
2018-11-11T06:35:07.468Z,19.90
2018-11-11T06:37:36.156Z,19.90
2018-11-11T06:40:06.685Z,19.90
2018-11-11T06:42:51.555Z,19.90
2018-11-11T06:45:24.956Z,19.90
2018-11-11T06:47:54.783Z,19.90
2018-11-11T06:53:02.503Z,19.90
2018-11-11T06:55:32.314Z,19.90
2018-11-11T06:58:01.869Z,20.00
2018-11-11T07:00:30.686Z,19.90
2018-11-11T07:03:11.308Z,20.00
2018-11-11T07:05:40.898Z,19.90
2018-11-11T07:08:10.865Z,19.90
2018-11-11T07:10:39.553Z,19.90
2018-11-11T07:13:08.200Z,19.90
2018-11-11T07:15:36.925Z,19.90
2018-11-11T07:18:05.792Z,19.90
2018-11-11T07:20:34.464Z,19.90
2018-11-11T07:23:03.196Z,19.90
2018-11-11T07:25:31.998Z,19.90
2018-11-11T07:28:00.748Z,19.90
2018-11-11T07:30:29.445Z,19.90
2018-11-11T07:32:58.108Z,19.90
2018-11-11T07:35:27.547Z,19.90
2018-11-11T07:37:56.345Z,19.90
2018-11-11T07:40:25.046Z,19.90
2018-11-11T07:42:54.533Z,19.90
2018-11-11T07:45:23.177Z,19.90
2018-11-11T07:47:52.722Z,19.80
2018-11-11T07:50:21.385Z,19.80
2018-11-11T07:52:50.080Z,19.90
2018-11-11T07:55:18.837Z,19.80
2018-11-11T07:57:47.485Z,19.80
2018-11-11T08:00:16.155Z,19.80
2018-11-11T08:02:44.898Z,19.80
2018-11-11T08:05:13.582Z,19.80
2018-11-11T08:07:42.219Z,19.80
2018-11-11T08:10:22.067Z,19.90
2018-11-11T08:12:50.817Z,19.90
2018-11-11T08:15:19.643Z,19.90
2018-11-11T08:17:48.317Z,19.90
2018-11-11T08:20:16.981Z,19.90
2018-11-11T08:22:45.814Z,20.00
2018-11-11T08:25:14.676Z,20.00
2018-11-11T08:27:43.348Z,20.00
2018-11-11T08:32:42.307Z,20.00
2018-11-11T08:35:11.022Z,19.90
2018-11-11T08:37:40.227Z,19.90
2018-11-11T08:40:09.485Z,19.90
2018-11-11T08:42:38.530Z,19.90
2018-11-11T08:45:10.792Z,19.90
2018-11-11T08:47:39.502Z,19.90
2018-11-11T08:50:26.065Z,19.90
2018-11-11T08:52:54.756Z,19.90
2018-11-11T08:55:23.419Z,19.90
2018-11-11T08:57:52.121Z,19.90
2018-11-11T09:00:20.781Z,19.90
2018-11-11T09:02:49.451Z,19.90
2018-11-11T09:05:18.119Z,19.80
2018-11-11T09:07:47.164Z,19.80
2018-11-11T09:10:15.892Z,19.80
2018-11-11T09:12:44.556Z,19.80
2018-11-11T09:15:14.408Z,19.80
2018-11-11T09:17:43.479Z,19.80
2018-11-11T09:20:13.169Z,19.80
2018-11-11T09:22:42.089Z,19.80
2018-11-11T09:25:11.165Z,19.70
2018-11-11T09:27:41.196Z,19.70
2018-11-11T09:30:12.092Z,19.70
2018-11-11T09:32:40.909Z,19.70
2018-11-11T09:35:09.978Z,19.80
2018-11-11T09:37:45.133Z,19.80
2018-11-11T09:40:14.089Z,19.80
2018-11-11T09:42:43.190Z,19.80
2018-11-11T09:45:13.589Z,19.80
2018-11-11T09:47:42.578Z,19.80
2018-11-11T09:50:13.033Z,19.90
2018-11-11T09:52:46.412Z,19.90
2018-11-11T09:55:15.348Z,20.10
2018-11-11T09:57:44.156Z,20.00
2018-11-11T10:00:16.461Z,20.00
2018-11-11T10:02:52.135Z,20.00
2018-11-11T10:05:27.972Z,20.00
2018-11-11T10:10:06.365Z,20.00
2018-11-11T10:12:40.305Z,20.00
2018-11-11T10:15:46.355Z,20.00
2018-11-11T10:18:35.920Z,19.90
2018-11-11T10:21:10.015Z,19.90
2018-11-11T10:23:43.949Z,19.90
2018-11-11T10:26:25.227Z,19.90
2018-11-11T10:31:05.681Z,19.90
2018-11-11T10:33:40.503Z,19.90
2018-11-11T10:36:17.541Z,19.90
2018-11-11T10:40:52.957Z,19.80
2018-11-11T10:43:26.849Z,19.80
2018-11-11T10:45:59.872Z,19.80
2018-11-11T10:48:31.514Z,19.80
2018-11-11T10:51:02.127Z,19.80
2018-11-11T10:53:30.761Z,19.80
2018-11-11T10:55:59.435Z,19.80
2018-11-11T10:58:28.584Z,19.80
2018-11-11T11:01:02.642Z,19.80
2018-11-11T11:03:35.517Z,19.80
2018-11-11T11:06:04.619Z,19.80
2018-11-11T11:08:33.380Z,19.80
2018-11-11T11:11:02.030Z,19.80
2018-11-11T11:13:31.108Z,19.80
2018-11-11T11:16:14.544Z,19.70
2018-11-11T11:18:43.310Z,19.80
2018-11-11T11:21:12.090Z,19.80
2018-11-11T11:23:40.883Z,19.80
2018-11-11T11:26:09.520Z,19.80
2018-11-11T11:28:38.298Z,19.80
2018-11-11T11:31:07.103Z,19.80
2018-11-11T11:33:35.747Z,19.80
2018-11-11T11:36:04.421Z,19.80
2018-11-11T11:38:33.151Z,19.80
2018-11-11T11:41:01.836Z,19.80
2018-11-11T11:43:30.468Z,19.90
2018-11-11T11:45:59.144Z,19.90
2018-11-11T11:48:27.860Z,19.90
2018-11-11T11:50:56.511Z,19.90
2018-11-11T11:53:25.441Z,19.90
2018-11-11T11:58:29.939Z,19.90
2018-11-11T12:00:58.708Z,19.90
2018-11-11T12:03:27.616Z,19.90
2018-11-11T12:05:56.327Z,19.90
2018-11-11T12:08:25.449Z,19.90
2018-11-11T12:10:54.111Z,19.90
2018-11-11T12:13:22.757Z,19.90
2018-11-11T12:15:51.420Z,19.90
2018-11-11T12:18:20.152Z,19.90
2018-11-11T12:20:48.847Z,19.90
2018-11-11T12:23:18.021Z,19.90
2018-11-11T12:25:47.270Z,19.90
2018-11-11T12:28:15.970Z,19.90
2018-11-11T12:30:44.743Z,19.90
2018-11-11T12:33:14.050Z,19.90
2018-11-11T12:35:42.777Z,19.90
2018-11-11T12:38:13.210Z,19.90
2018-11-11T12:40:41.943Z,19.90
2018-11-11T12:43:10.665Z,19.90
2018-11-11T12:45:40.105Z,19.90
2018-11-11T12:48:08.831Z,19.90
2018-11-11T12:53:05.885Z,19.90
2018-11-11T12:58:02.892Z,19.90
2018-11-11T13:02:59.960Z,19.90
2018-11-11T13:05:28.774Z,19.90
2018-11-11T13:07:58.198Z,19.90
2018-11-11T13:10:27.505Z,19.90
2018-11-11T13:12:56.206Z,20.00
2018-11-11T13:15:25.077Z,19.90
2018-11-11T13:20:22.025Z,20.00
2018-11-11T13:22:50.800Z,20.00
2018-11-11T13:25:19.443Z,20.00
2018-11-11T13:27:48.139Z,20.00
2018-11-11T13:30:17.456Z,20.00
2018-11-11T13:32:46.666Z,20.00
2018-11-11T13:35:16.139Z,20.00
2018-11-11T13:37:44.844Z,20.00
2018-11-11T13:40:15.964Z,20.00
2018-11-11T13:42:44.744Z,20.00
2018-11-11T13:45:22.532Z,19.40
2018-11-11T13:47:51.820Z,20.00
2018-11-11T13:50:24.119Z,20.00
2018-11-11T13:52:52.717Z,20.00
2018-11-11T13:55:21.960Z,20.00
2018-11-11T13:57:50.949Z,20.00
2018-11-11T14:00:23.738Z,20.00
2018-11-11T14:02:52.424Z,20.00
2018-11-11T14:05:21.140Z,20.00
2018-11-11T14:07:49.875Z,20.00
2018-11-11T14:10:18.621Z,20.00
2018-11-11T14:12:47.408Z,20.00
2018-11-11T14:15:19.998Z,19.90
2018-11-11T14:17:49.049Z,19.90
2018-11-11T14:20:19.212Z,19.90
2018-11-11T14:22:48.652Z,19.90
2018-11-11T14:25:21.168Z,19.90
2018-11-11T14:27:49.789Z,19.90
2018-11-11T14:30:20.678Z,19.90
2018-11-11T14:32:50.924Z,19.90
2018-11-11T14:35:19.595Z,19.90
2018-11-11T14:37:48.602Z,19.90
2018-11-11T14:40:23.203Z,19.90
2018-11-11T14:45:20.884Z,19.90
2018-11-11T14:47:50.835Z,19.90
2018-11-11T14:50:20.236Z,19.90
2018-11-11T14:52:49.080Z,19.90
2018-11-11T14:55:19.386Z,19.90
2018-11-11T14:57:48.020Z,19.90
2018-11-11T15:00:33.385Z,19.90
2018-11-11T15:03:10.240Z,19.90
2018-11-11T15:05:38.994Z,19.90
2018-11-11T15:08:07.780Z,20.00
2018-11-11T15:10:36.472Z,20.00
2018-11-11T15:13:05.396Z,20.00
2018-11-11T15:15:34.131Z,20.00
2018-11-11T15:18:03.296Z,20.00
2018-11-11T15:20:32.368Z,20.00
2018-11-11T15:23:01.008Z,20.00
2018-11-11T15:25:30.595Z,20.00
2018-11-11T15:27:59.237Z,20.00
2018-11-11T15:30:29.401Z,20.00
2018-11-11T15:32:58.715Z,19.90
2018-11-11T15:35:27.371Z,20.00
2018-11-11T15:37:56.088Z,20.00
2018-11-11T15:40:32.419Z,20.00
2018-11-11T15:43:01.146Z,19.90
2018-11-11T15:45:31.097Z,20.00
2018-11-11T15:48:00.122Z,19.90
2018-11-11T15:50:30.046Z,19.90
2018-11-11T15:53:04.923Z,19.90
2018-11-11T15:55:34.845Z,19.90
2018-11-11T15:58:03.565Z,19.90
2018-11-11T16:00:40.281Z,19.90
2018-11-11T16:03:08.960Z,19.90
2018-11-11T16:05:37.608Z,19.90
2018-11-11T16:08:06.273Z,19.90
2018-11-11T16:10:35.500Z,19.90
2018-11-11T16:13:04.298Z,19.90
2018-11-11T16:15:37.429Z,19.90
2018-11-11T16:18:08.119Z,19.90
2018-11-11T16:23:06.193Z,19.90
2018-11-11T16:25:35.297Z,19.90
2018-11-11T16:28:03.884Z,19.90
2018-11-11T16:30:34.111Z,19.90
2018-11-11T16:33:03.132Z,19.90
2018-11-11T16:35:32.395Z,19.90
2018-11-11T16:38:01.705Z,19.90
2018-11-11T16:40:31.891Z,19.90
2018-11-11T16:43:00.763Z,19.90
2018-11-11T16:45:30.204Z,19.90
2018-11-11T16:47:58.988Z,19.90
2018-11-11T16:50:29.411Z,19.90
2018-11-11T16:52:59.666Z,19.90
2018-11-11T16:55:29.565Z,19.90
2018-11-11T17:00:28.769Z,19.90
2018-11-11T17:02:58.285Z,19.90
2018-11-11T17:05:28.414Z,19.90
2018-11-11T17:07:57.107Z,19.90
2018-11-11T17:10:27.367Z,19.90
2018-11-11T17:12:57.129Z,19.90
2018-11-11T17:15:27.060Z,19.90
2018-11-11T17:17:55.766Z,19.90
2018-11-11T17:20:25.281Z,19.90
2018-11-11T17:22:54.994Z,19.90
2018-11-11T17:25:24.552Z,19.90
2018-11-11T17:30:23.773Z,19.90
2018-11-11T17:32:52.847Z,19.90
2018-11-11T17:35:22.165Z,19.90
2018-11-11T17:37:51.424Z,19.90
2018-11-11T17:40:22.471Z,19.90
2018-11-11T17:42:51.951Z,19.90
2018-11-11T17:45:20.717Z,19.90
2018-11-11T17:47:50.569Z,19.90
2018-11-11T17:50:27.637Z,19.90
2018-11-11T17:52:56.405Z,19.90
2018-11-11T17:55:26.341Z,19.90
2018-11-11T17:57:55.222Z,19.90
2018-11-11T18:00:25.316Z,19.90
2018-11-11T18:02:54.355Z,19.90
2018-11-11T18:05:24.376Z,19.90
2018-11-11T18:07:53.077Z,19.90
2018-11-11T18:10:24.346Z,19.90
2018-11-11T18:12:53.010Z,19.90
2018-11-11T18:15:29.165Z,19.90
2018-11-11T18:17:57.929Z,19.90
2018-11-11T18:20:28.295Z,19.90
2018-11-11T18:22:57.965Z,19.90
2018-11-11T18:25:27.098Z,19.90
2018-11-11T18:27:55.829Z,19.90
2018-11-11T18:30:27.739Z,19.90
2018-11-11T18:32:56.455Z,19.90
2018-11-11T18:35:25.388Z,20.00
2018-11-11T18:37:56.021Z,20.10
2018-11-11T18:40:26.392Z,20.10
2018-11-11T18:42:55.056Z,20.20
2018-11-11T18:45:25.341Z,20.60
2018-11-11T18:47:54.414Z,20.80
2018-11-11T18:50:24.495Z,20.80
2018-11-11T18:53:37.492Z,21.00
2018-11-11T18:56:10.249Z,21.20
2018-11-11T18:58:39.571Z,21.60
2018-11-11T19:01:12.155Z,21.60
2018-11-11T19:03:41.220Z,21.90
2018-11-11T19:06:14.219Z,21.90
2018-11-11T19:08:44.978Z,22.10
2018-11-11T19:11:14.290Z,22.50
2018-11-11T19:13:43.003Z,22.40
2018-11-11T19:16:11.659Z,22.60
2018-11-11T19:18:40.481Z,22.80
2018-11-11T19:21:09.201Z,22.70
2018-11-11T19:23:37.952Z,22.70
2018-11-11T19:26:06.763Z,22.90
2018-11-11T19:28:35.437Z,22.90
2018-11-11T19:31:04.100Z,22.90
2018-11-11T19:33:32.789Z,22.80
2018-11-11T19:36:01.445Z,22.90
2018-11-11T19:38:30.215Z,23.00
2018-11-11T19:40:58.928Z,23.00
2018-11-11T19:43:27.635Z,23.00
2018-11-11T19:45:56.358Z,22.90
2018-11-11T19:48:25.071Z,22.90
2018-11-11T19:50:53.709Z,23.00
2018-11-11T19:53:22.967Z,23.00
2018-11-11T19:55:51.665Z,23.10
2018-11-11T19:58:20.715Z,23.00
2018-11-11T20:00:49.420Z,23.00
2018-11-11T20:03:18.277Z,23.00
2018-11-11T20:05:46.941Z,23.00
2018-11-11T20:08:15.679Z,22.80
2018-11-11T20:10:44.415Z,22.90
2018-11-11T20:13:13.090Z,23.00
2018-11-11T20:15:41.789Z,23.00
2018-11-11T20:18:10.556Z,22.90
2018-11-11T20:20:40.136Z,22.90
2018-11-11T20:23:08.818Z,22.80
2018-11-11T20:25:37.600Z,22.90
2018-11-11T20:28:06.587Z,23.00
2018-11-11T20:30:37.022Z,22.90
2018-11-11T20:33:06.661Z,22.80
2018-11-11T20:35:35.491Z,22.90
2018-11-11T20:38:04.193Z,22.90
2018-11-11T20:40:32.949Z,22.90
2018-11-11T20:43:01.760Z,23.00
2018-11-11T20:45:31.909Z,22.60
2018-11-11T20:48:00.606Z,22.60
2018-11-11T20:50:30.540Z,22.80
2018-11-11T20:53:00.611Z,22.80
2018-11-11T20:55:29.256Z,22.80
2018-11-11T20:57:58.245Z,22.80
2018-11-11T21:00:28.383Z,23.00
2018-11-11T21:02:57.522Z,22.90
2018-11-11T21:05:27.275Z,22.90
2018-11-11T21:07:56.011Z,22.90
2018-11-11T21:10:27.437Z,23.00
2018-11-11T21:12:56.544Z,23.00
2018-11-11T21:15:26.725Z,22.90
2018-11-11T21:17:55.460Z,22.90
2018-11-11T21:20:26.854Z,22.90
2018-11-11T21:22:55.613Z,22.90
2018-11-11T21:25:24.353Z,22.90
2018-11-11T21:27:53.037Z,22.90
2018-11-11T21:30:23.143Z,22.90
2018-11-11T21:32:51.879Z,22.90
2018-11-11T21:35:20.604Z,22.80
2018-11-11T21:37:49.353Z,22.80
2018-11-11T21:40:19.370Z,22.90
2018-11-11T21:42:48.909Z,22.90
2018-11-11T21:45:18.794Z,22.90
2018-11-11T21:47:47.714Z,22.90
2018-11-11T21:50:17.724Z,23.00
2018-11-11T21:52:54.334Z,22.90
2018-11-11T21:55:23.250Z,22.90
2018-11-11T21:57:51.972Z,22.90
2018-11-11T22:00:20.731Z,22.90
2018-11-11T22:02:49.452Z,22.80
2018-11-11T22:05:18.132Z,22.80
2018-11-11T22:07:46.805Z,22.90
2018-11-11T22:10:15.496Z,22.90
2018-11-11T22:12:44.188Z,23.00
2018-11-11T22:15:13.388Z,22.90
2018-11-11T22:17:42.503Z,22.90
2018-11-11T22:20:11.615Z,22.90
2018-11-11T22:22:40.838Z,23.00
2018-11-11T22:25:09.552Z,23.00
2018-11-11T22:27:38.257Z,22.80
2018-11-11T22:30:10.220Z,22.80
2018-11-11T22:32:39.318Z,22.70
2018-11-11T22:35:09.357Z,22.70
2018-11-11T22:37:38.112Z,22.80
2018-11-11T22:42:35.907Z,22.80
2018-11-11T22:45:05.086Z,22.80
2018-11-11T22:47:33.808Z,22.80
2018-11-11T22:50:02.528Z,22.70
2018-11-11T22:52:31.258Z,22.90
2018-11-11T22:54:59.975Z,22.90
2018-11-11T22:57:29.046Z,22.90
2018-11-11T22:59:59.072Z,22.90
2018-11-11T23:02:28.010Z,22.90
2018-11-11T23:04:57.131Z,22.90
2018-11-11T23:07:26.044Z,23.00
2018-11-11T23:09:54.670Z,23.00
2018-11-11T23:12:23.824Z,23.00
2018-11-11T23:14:52.556Z,23.10
2018-11-11T23:17:21.236Z,22.70
2018-11-11T23:19:49.917Z,22.50
2018-11-11T23:22:18.635Z,22.50
2018-11-11T23:24:47.307Z,22.20
2018-11-11T23:27:16.389Z,22.00
2018-11-11T23:29:45.962Z,22.00
2018-11-11T23:32:15.436Z,21.80
2018-11-11T23:34:44.572Z,21.70
2018-11-11T23:37:13.333Z,21.30
2018-11-11T23:39:42.107Z,21.20
2018-11-11T23:42:10.749Z,21.10
2018-11-11T23:44:39.418Z,20.90
2018-11-11T23:47:08.065Z,20.90
2018-11-11T23:49:36.712Z,20.80
2018-11-11T23:52:05.900Z,20.80
2018-11-11T23:54:34.650Z,20.70
2018-11-11T23:59:31.639Z,20.60
